sensor_id;sensor_type;location;lat;lon;timestamp;temperature;humidity
20881;DHT22;10600;53.096;8.802;2024-01-11T00:00:04;-5.20;99.90
20881;DHT22;10600;53.096;8.802;2024-01-11T00:01:08;-5.20;99.90
20881;DHT22;10600;53.096;8.802;2024-01-11T00:02:10;-5.10;99.90
20881;DHT22;10600;53.096;8.802;2024-01-11T00:03:11;-5.10;99.90
20881;DHT22;10600;53.096;8.802;2024-01-11T00:04:11;-5.10;99.90
20881;DHT22;10600;53.096;8.802;2024-01-11T00:05:12;-5.10;99.90
20881;DHT22;10600;53.096;8.802;2024-01-11T00:06:12;-5.00;99.90
20881;DHT22;10600;53.096;8.802;2024-01-11T00:07:13;-5.00;99.90
20881;DHT22;10600;53.096;8.802;2024-01-11T00:08:13;-5.00;99.90
20881;DHT22;10600;53.096;8.802;2024-01-11T00:09:14;-5.00;99.90
20881;DHT22;10600;53.096;8.802;2024-01-11T00:10:15;-5.00;99.90
20881;DHT22;10600;53.096;8.802;2024-01-11T00:11:16;-5.00;99.90
20881;DHT22;10600;53.096;8.802;2024-01-11T00:12:16;-5.00;99.90
20881;DHT22;10600;53.096;8.802;2024-01-11T00:13:17;-5.00;99.90
20881;DHT22;10600;53.096;8.802;2024-01-11T00:14:17;-5.00;99.90
20881;DHT22;10600;53.096;8.802;2024-01-11T00:15:18;-4.90;99.90
20881;DHT22;10600;53.096;8.802;2024-01-11T00:16:18;-4.90;99.90
20881;DHT22;10600;53.096;8.802;2024-01-11T00:17:19;-4.90;99.90
20881;DHT22;10600;53.096;8.802;2024-01-11T00:18:19;-4.90;99.90
20881;DHT22;10600;53.096;8.802;2024-01-11T00:19:20;-4.90;99.90
20881;DHT22;10600;53.096;8.802;2024-01-11T00:20:20;-4.90;99.90
20881;DHT22;10600;53.096;8.802;2024-01-11T00:21:21;-4.90;99.90
20881;DHT22;10600;53.096;8.802;2024-01-11T00:22:21;-4.90;99.90
20881;DHT22;10600;53.096;8.802;2024-01-11T00:23:22;-4.90;99.90
20881;DHT22;10600;53.096;8.802;2024-01-11T00:24:23;-4.90;99.90
20881;DHT22;10600;53.096;8.802;2024-01-11T00:25:24;-4.90;99.90
20881;DHT22;10600;53.096;8.802;2024-01-11T00:26:24;-4.90;99.90
20881;DHT22;10600;53.096;8.802;2024-01-11T00:27:25;-4.90;99.90
20881;DHT22;10600;53.096;8.802;2024-01-11T00:28:25;-4.90;99.90
20881;DHT22;10600;53.096;8.802;2024-01-11T00:29:26;-4.90;99.90
20881;DHT22;10600;53.096;8.802;2024-01-11T00:30:27;-4.90;99.90
20881;DHT22;10600;53.096;8.802;2024-01-11T00:31:27;-4.90;99.90
20881;DHT22;10600;53.096;8.802;2024-01-11T00:32:28;-4.90;99.90
20881;DHT22;10600;53.096;8.802;2024-01-11T00:33:28;-4.90;99.90
20881;DHT22;10600;53.096;8.802;2024-01-11T00:34:29;-4.90;99.90
20881;DHT22;10600;53.096;8.802;2024-01-11T00:35:29;-4.90;99.90
20881;DHT22;10600;53.096;8.802;2024-01-11T00:36:30;-4.90;99.90
20881;DHT22;10600;53.096;8.802;2024-01-11T00:37:30;-4.90;99.90
20881;DHT22;10600;53.096;8.802;2024-01-11T00:38:31;-4.90;99.90
20881;DHT22;10600;53.096;8.802;2024-01-11T00:39:31;-4.90;99.90
20881;DHT22;10600;53.096;8.802;2024-01-11T00:40:32;-4.90;99.90
20881;DHT22;10600;53.096;8.802;2024-01-11T00:41:32;-4.80;99.90
20881;DHT22;10600;53.096;8.802;2024-01-11T00:42:33;-4.80;99.90
20881;DHT22;10600;53.096;8.802;2024-01-11T00:43:35;-4.80;99.90
20881;DHT22;10600;53.096;8.802;2024-01-11T00:44:35;-4.80;99.90
20881;DHT22;10600;53.096;8.802;2024-01-11T00:45:36;-4.80;99.90
20881;DHT22;10600;53.096;8.802;2024-01-11T00:46:36;-4.80;99.90
20881;DHT22;10600;53.096;8.802;2024-01-11T00:47:38;-4.80;99.90
20881;DHT22;10600;53.096;8.802;2024-01-11T00:48:39;-4.80;99.90
20881;DHT22;10600;53.096;8.802;2024-01-11T00:49:39;-4.80;99.90
20881;DHT22;10600;53.096;8.802;2024-01-11T00:50:40;-4.80;99.90
20881;DHT22;10600;53.096;8.802;2024-01-11T00:51:40;-4.80;99.90
20881;DHT22;10600;53.096;8.802;2024-01-11T00:52:41;-4.80;99.90
20881;DHT22;10600;53.096;8.802;2024-01-11T00:53:41;-4.80;99.90
20881;DHT22;10600;53.096;8.802;2024-01-11T00:54:42;-4.80;99.90
20881;DHT22;10600;53.096;8.802;2024-01-11T00:55:42;-4.80;99.90
20881;DHT22;10600;53.096;8.802;2024-01-11T00:56:43;-4.80;99.90
20881;DHT22;10600;53.096;8.802;2024-01-11T00:57:44;-4.90;99.90
20881;DHT22;10600;53.096;8.802;2024-01-11T00:58:44;-4.80;99.90
20881;DHT22;10600;53.096;8.802;2024-01-11T00:59:45;-4.80;99.90
20881;DHT22;10600;53.096;8.802;2024-01-11T01:00:45;-4.80;99.90
20881;DHT22;10600;53.096;8.802;2024-01-11T01:01:47;-4.80;99.90
20881;DHT22;10600;53.096;8.802;2024-01-11T01:02:48;-4.80;99.90
20881;DHT22;10600;53.096;8.802;2024-01-11T01:03:49;-4.80;99.90
20881;DHT22;10600;53.096;8.802;2024-01-11T01:04:49;-4.80;99.90
20881;DHT22;10600;53.096;8.802;2024-01-11T01:05:50;-4.80;99.90
20881;DHT22;10600;53.096;8.802;2024-01-11T01:06:50;-4.80;99.90
20881;DHT22;10600;53.096;8.802;2024-01-11T01:07:51;-4.80;99.90
20881;DHT22;10600;53.096;8.802;2024-01-11T01:08:51;-4.80;99.90
20881;DHT22;10600;53.096;8.802;2024-01-11T01:09:52;-4.80;99.90
20881;DHT22;10600;53.096;8.802;2024-01-11T01:10:53;-4.80;99.90
20881;DHT22;10600;53.096;8.802;2024-01-11T01:11:54;-4.70;99.90
20881;DHT22;10600;53.096;8.802;2024-01-11T01:12:54;-4.70;99.90
20881;DHT22;10600;53.096;8.802;2024-01-11T01:13:55;-4.70;99.90
20881;DHT22;10600;53.096;8.802;2024-01-11T01:14:56;-4.70;99.90
20881;DHT22;10600;53.096;8.802;2024-01-11T01:15:56;-4.70;99.90
20881;DHT22;10600;53.096;8.802;2024-01-11T01:16:57;-4.70;99.90
20881;DHT22;10600;53.096;8.802;2024-01-11T01:17:58;-4.70;99.90
20881;DHT22;10600;53.096;8.802;2024-01-11T01:18:58;-4.60;99.90
20881;DHT22;10600;53.096;8.802;2024-01-11T01:19:59;-4.70;99.90
20881;DHT22;10600;53.096;8.802;2024-01-11T01:20:59;-4.70;99.90
20881;DHT22;10600;53.096;8.802;2024-01-11T01:22:00;-4.60;99.90
20881;DHT22;10600;53.096;8.802;2024-01-11T01:23:01;-4.60;99.90
20881;DHT22;10600;53.096;8.802;2024-01-11T01:24:02;-4.60;99.90
20881;DHT22;10600;53.096;8.802;2024-01-11T01:25:03;-4.70;99.90
20881;DHT22;10600;53.096;8.802;2024-01-11T01:26:04;-4.60;99.90
20881;DHT22;10600;53.096;8.802;2024-01-11T01:27:04;-4.60;99.90
20881;DHT22;10600;53.096;8.802;2024-01-11T01:28:05;-4.60;99.90
20881;DHT22;10600;53.096;8.802;2024-01-11T01:29:05;-4.60;99.90
20881;DHT22;10600;53.096;8.802;2024-01-11T01:30:06;-4.60;99.90
20881;DHT22;10600;53.096;8.802;2024-01-11T01:31:07;-4.60;99.90
20881;DHT22;10600;53.096;8.802;2024-01-11T01:32:07;-4.60;99.90
20881;DHT22;10600;53.096;8.802;2024-01-11T01:33:08;-4.50;99.90
20881;DHT22;10600;53.096;8.802;2024-01-11T01:34:08;-4.60;99.90
20881;DHT22;10600;53.096;8.802;2024-01-11T01:35:09;-4.50;99.90
20881;DHT22;10600;53.096;8.802;2024-01-11T01:36:10;-4.50;99.90
20881;DHT22;10600;53.096;8.802;2024-01-11T01:37:11;-4.60;99.90
20881;DHT22;10600;53.096;8.802;2024-01-11T01:38:12;-4.60;99.90
20881;DHT22;10600;53.096;8.802;2024-01-11T01:39:12;-4.60;99.90
20881;DHT22;10600;53.096;8.802;2024-01-11T01:40:13;-4.60;99.90
20881;DHT22;10600;53.096;8.802;2024-01-11T01:41:14;-4.50;99.90
20881;DHT22;10600;53.096;8.802;2024-01-11T01:42:14;-4.60;99.90
20881;DHT22;10600;53.096;8.802;2024-01-11T01:43:15;-4.50;99.90
20881;DHT22;10600;53.096;8.802;2024-01-11T01:44:15;-4.50;99.90
20881;DHT22;10600;53.096;8.802;2024-01-11T01:45:16;-4.50;99.90
20881;DHT22;10600;53.096;8.802;2024-01-11T01:46:21;-4.50;99.90
20881;DHT22;10600;53.096;8.802;2024-01-11T01:47:23;-4.50;99.90
20881;DHT22;10600;53.096;8.802;2024-01-11T01:48:23;-4.50;99.90
20881;DHT22;10600;53.096;8.802;2024-01-11T01:49:24;-4.50;99.90
20881;DHT22;10600;53.096;8.802;2024-01-11T01:50:26;-4.50;99.90
20881;DHT22;10600;53.096;8.802;2024-01-11T01:51:29;-4.50;99.90
20881;DHT22;10600;53.096;8.802;2024-01-11T01:52:31;-4.50;99.90
20881;DHT22;10600;53.096;8.802;2024-01-11T01:53:33;-4.50;99.90
20881;DHT22;10600;53.096;8.802;2024-01-11T01:54:34;-4.50;99.90
20881;DHT22;10600;53.096;8.802;2024-01-11T01:55:36;-4.50;99.90
20881;DHT22;10600;53.096;8.802;2024-01-11T01:56:36;-4.50;99.90
20881;DHT22;10600;53.096;8.802;2024-01-11T01:57:37;-4.50;99.90
20881;DHT22;10600;53.096;8.802;2024-01-11T01:58:40;-4.50;99.90
20881;DHT22;10600;53.096;8.802;2024-01-11T01:59:41;-4.50;99.90
20881;DHT22;10600;53.096;8.802;2024-01-11T02:00:44;-4.50;99.90
20881;DHT22;10600;53.096;8.802;2024-01-11T02:01:45;-4.50;99.90
20881;DHT22;10600;53.096;8.802;2024-01-11T02:02:50;-4.50;99.90
20881;DHT22;10600;53.096;8.802;2024-01-11T02:03:52;-4.60;99.90
20881;DHT22;10600;53.096;8.802;2024-01-11T02:04:54;-4.60;99.90
20881;DHT22;10600;53.096;8.802;2024-01-11T02:05:55;-4.60;99.90
20881;DHT22;10600;53.096;8.802;2024-01-11T02:06:58;-4.60;99.90
20881;DHT22;10600;53.096;8.802;2024-01-11T02:08:00;-4.60;99.90
20881;DHT22;10600;53.096;8.802;2024-01-11T02:09:01;-4.60;99.90
20881;DHT22;10600;53.096;8.802;2024-01-11T02:10:06;-4.60;99.90
20881;DHT22;10600;53.096;8.802;2024-01-11T02:11:07;-4.60;99.90
20881;DHT22;10600;53.096;8.802;2024-01-11T02:12:09;-4.70;99.90
20881;DHT22;10600;53.096;8.802;2024-01-11T02:13:11;-4.70;99.90
20881;DHT22;10600;53.096;8.802;2024-01-11T02:14:13;-4.70;99.90
20881;DHT22;10600;53.096;8.802;2024-01-11T02:15:14;-4.70;99.90
20881;DHT22;10600;53.096;8.802;2024-01-11T02:16:15;-4.70;99.90
20881;DHT22;10600;53.096;8.802;2024-01-11T02:17:15;-4.70;99.90
20881;DHT22;10600;53.096;8.802;2024-01-11T02:18:16;-4.70;99.90
20881;DHT22;10600;53.096;8.802;2024-01-11T02:19:19;-4.70;99.90
20881;DHT22;10600;53.096;8.802;2024-01-11T02:20:19;-4.80;99.90
20881;DHT22;10600;53.096;8.802;2024-01-11T02:21:20;-4.80;99.90
20881;DHT22;10600;53.096;8.802;2024-01-11T02:22:25;-4.80;99.90
20881;DHT22;10600;53.096;8.802;2024-01-11T02:23:27;-4.80;99.90
20881;DHT22;10600;53.096;8.802;2024-01-11T02:24:28;-4.80;99.90
20881;DHT22;10600;53.096;8.802;2024-01-11T02:25:28;-4.80;99.90
20881;DHT22;10600;53.096;8.802;2024-01-11T02:26:29;-4.80;99.90
20881;DHT22;10600;53.096;8.802;2024-01-11T02:27:30;-4.80;99.90
20881;DHT22;10600;53.096;8.802;2024-01-11T02:28:30;-4.70;99.90
20881;DHT22;10600;53.096;8.802;2024-01-11T02:29:31;-4.70;99.90
20881;DHT22;10600;53.096;8.802;2024-01-11T02:30:32;-4.70;99.90
20881;DHT22;10600;53.096;8.802;2024-01-11T02:31:32;-4.70;99.90
20881;DHT22;10600;53.096;8.802;2024-01-11T02:32:33;-4.70;99.90
20881;DHT22;10600;53.096;8.802;2024-01-11T02:33:34;-4.70;99.90
20881;DHT22;10600;53.096;8.802;2024-01-11T02:34:34;-4.70;99.90
20881;DHT22;10600;53.096;8.802;2024-01-11T02:35:35;-4.70;99.90
20881;DHT22;10600;53.096;8.802;2024-01-11T02:36:39;-4.70;99.90
20881;DHT22;10600;53.096;8.802;2024-01-11T02:37:39;-4.70;99.90
20881;DHT22;10600;53.096;8.802;2024-01-11T02:38:42;-4.70;99.90
20881;DHT22;10600;53.096;8.802;2024-01-11T02:39:42;-4.70;99.90
20881;DHT22;10600;53.096;8.802;2024-01-11T02:40:44;-4.70;99.90
20881;DHT22;10600;53.096;8.802;2024-01-11T02:41:45;-4.70;99.90
20881;DHT22;10600;53.096;8.802;2024-01-11T02:42:47;-4.80;99.90
20881;DHT22;10600;53.096;8.802;2024-01-11T02:43:48;-4.80;99.90
20881;DHT22;10600;53.096;8.802;2024-01-11T02:44:48;-4.80;99.90
20881;DHT22;10600;53.096;8.802;2024-01-11T02:45:49;-4.80;99.90
20881;DHT22;10600;53.096;8.802;2024-01-11T02:46:49;-4.80;99.90
20881;DHT22;10600;53.096;8.802;2024-01-11T02:47:50;-4.80;99.90
20881;DHT22;10600;53.096;8.802;2024-01-11T02:48:50;-4.90;99.90
20881;DHT22;10600;53.096;8.802;2024-01-11T02:49:52;-4.90;99.90
20881;DHT22;10600;53.096;8.802;2024-01-11T02:50:53;-4.90;99.90
20881;DHT22;10600;53.096;8.802;2024-01-11T02:51:53;-4.90;99.90
20881;DHT22;10600;53.096;8.802;2024-01-11T02:52:54;-4.90;99.90
20881;DHT22;10600;53.096;8.802;2024-01-11T02:53:54;-5.00;99.90
20881;DHT22;10600;53.096;8.802;2024-01-11T02:54:55;-5.00;99.90
20881;DHT22;10600;53.096;8.802;2024-01-11T02:55:55;-5.00;99.90
20881;DHT22;10600;53.096;8.802;2024-01-11T02:56:56;-5.00;99.90
20881;DHT22;10600;53.096;8.802;2024-01-11T02:57:57;-5.00;99.90
20881;DHT22;10600;53.096;8.802;2024-01-11T02:58:58;-5.00;99.90
20881;DHT22;10600;53.096;8.802;2024-01-11T02:59:58;-5.10;99.90
20881;DHT22;10600;53.096;8.802;2024-01-11T03:00:59;-5.00;99.90
20881;DHT22;10600;53.096;8.802;2024-01-11T03:01:59;-5.00;99.90
20881;DHT22;10600;53.096;8.802;2024-01-11T03:03:00;-5.00;99.90
20881;DHT22;10600;53.096;8.802;2024-01-11T03:04:01;-5.00;99.90
20881;DHT22;10600;53.096;8.802;2024-01-11T03:05:01;-5.00;99.90
20881;DHT22;10600;53.096;8.802;2024-01-11T03:06:03;-5.00;99.90
20881;DHT22;10600;53.096;8.802;2024-01-11T03:07:03;-5.00;99.90
20881;DHT22;10600;53.096;8.802;2024-01-11T03:08:04;-5.00;99.90
20881;DHT22;10600;53.096;8.802;2024-01-11T03:09:05;-5.00;99.90
20881;DHT22;10600;53.096;8.802;2024-01-11T03:10:05;-4.90;99.90
20881;DHT22;10600;53.096;8.802;2024-01-11T03:11:06;-4.90;99.90
20881;DHT22;10600;53.096;8.802;2024-01-11T03:12:07;-4.90;99.90
20881;DHT22;10600;53.096;8.802;2024-01-11T03:13:07;-4.90;99.90
20881;DHT22;10600;53.096;8.802;2024-01-11T03:14:08;-4.90;99.90
20881;DHT22;10600;53.096;8.802;2024-01-11T03:15:09;-4.90;99.90
20881;DHT22;10600;53.096;8.802;2024-01-11T03:16:09;-4.90;99.90
20881;DHT22;10600;53.096;8.802;2024-01-11T03:17:10;-4.90;99.90
20881;DHT22;10600;53.096;8.802;2024-01-11T03:18:10;-4.90;99.90
20881;DHT22;10600;53.096;8.802;2024-01-11T03:19:11;-4.80;99.90
20881;DHT22;10600;53.096;8.802;2024-01-11T03:20:11;-4.80;99.90
20881;DHT22;10600;53.096;8.802;2024-01-11T03:21:12;-4.80;99.90
20881;DHT22;10600;53.096;8.802;2024-01-11T03:22:13;-4.80;99.90
20881;DHT22;10600;53.096;8.802;2024-01-11T03:23:13;-4.90;99.90
20881;DHT22;10600;53.096;8.802;2024-01-11T03:24:14;-4.90;99.90
20881;DHT22;10600;53.096;8.802;2024-01-11T03:25:14;-4.90;99.90
20881;DHT22;10600;53.096;8.802;2024-01-11T03:26:16;-5.00;99.90
20881;DHT22;10600;53.096;8.802;2024-01-11T03:27:17;-5.00;99.90
20881;DHT22;10600;53.096;8.802;2024-01-11T03:28:18;-5.00;99.90
20881;DHT22;10600;53.096;8.802;2024-01-11T03:29:19;-5.00;99.90
20881;DHT22;10600;53.096;8.802;2024-01-11T03:30:19;-5.00;99.90
20881;DHT22;10600;53.096;8.802;2024-01-11T03:31:20;-5.10;99.90
20881;DHT22;10600;53.096;8.802;2024-01-11T03:32:20;-5.10;99.90
20881;DHT22;10600;53.096;8.802;2024-01-11T03:33:21;-5.10;99.90
20881;DHT22;10600;53.096;8.802;2024-01-11T03:34:21;-5.00;99.90
20881;DHT22;10600;53.096;8.802;2024-01-11T03:35:22;-5.00;99.90
20881;DHT22;10600;53.096;8.802;2024-01-11T03:36:25;-5.00;99.90
20881;DHT22;10600;53.096;8.802;2024-01-11T03:37:26;-5.00;99.90
20881;DHT22;10600;53.096;8.802;2024-01-11T03:38:26;-5.00;99.90
20881;DHT22;10600;53.096;8.802;2024-01-11T03:39:27;-5.00;99.90
20881;DHT22;10600;53.096;8.802;2024-01-11T03:40:27;-5.10;99.90
20881;DHT22;10600;53.096;8.802;2024-01-11T03:41:28;-5.10;99.90
20881;DHT22;10600;53.096;8.802;2024-01-11T03:42:28;-5.10;99.90
20881;DHT22;10600;53.096;8.802;2024-01-11T03:43:29;-5.10;99.90
20881;DHT22;10600;53.096;8.802;2024-01-11T03:44:30;-5.10;99.90
20881;DHT22;10600;53.096;8.802;2024-01-11T03:45:31;-5.10;99.90
20881;DHT22;10600;53.096;8.802;2024-01-11T03:46:32;-5.10;99.90
20881;DHT22;10600;53.096;8.802;2024-01-11T03:47:32;-5.10;99.90
20881;DHT22;10600;53.096;8.802;2024-01-11T03:48:33;-5.10;99.90
20881;DHT22;10600;53.096;8.802;2024-01-11T03:49:35;-5.10;99.90
20881;DHT22;10600;53.096;8.802;2024-01-11T03:50:36;-5.10;99.90
20881;DHT22;10600;53.096;8.802;2024-01-11T03:51:36;-5.10;99.90
20881;DHT22;10600;53.096;8.802;2024-01-11T03:52:37;-5.10;99.90
20881;DHT22;10600;53.096;8.802;2024-01-11T03:53:38;-5.20;99.90
20881;DHT22;10600;53.096;8.802;2024-01-11T03:54:38;-5.20;99.90
20881;DHT22;10600;53.096;8.802;2024-01-11T03:55:39;-5.20;99.90
20881;DHT22;10600;53.096;8.802;2024-01-11T03:56:39;-5.20;99.90
20881;DHT22;10600;53.096;8.802;2024-01-11T03:57:40;-5.30;99.90
20881;DHT22;10600;53.096;8.802;2024-01-11T03:58:40;-5.30;99.90
20881;DHT22;10600;53.096;8.802;2024-01-11T03:59:42;-5.30;99.90
20881;DHT22;10600;53.096;8.802;2024-01-11T04:00:42;-5.30;99.90
20881;DHT22;10600;53.096;8.802;2024-01-11T04:01:43;-5.30;99.90
20881;DHT22;10600;53.096;8.802;2024-01-11T04:02:43;-5.20;99.90
20881;DHT22;10600;53.096;8.802;2024-01-11T04:03:44;-5.20;99.90
20881;DHT22;10600;53.096;8.802;2024-01-11T04:04:44;-5.30;99.90
20881;DHT22;10600;53.096;8.802;2024-01-11T04:05:45;-5.20;99.90
20881;DHT22;10600;53.096;8.802;2024-01-11T04:06:45;-5.20;99.90
20881;DHT22;10600;53.096;8.802;2024-01-11T04:07:46;-5.20;99.90
20881;DHT22;10600;53.096;8.802;2024-01-11T04:08:47;-5.20;99.90
20881;DHT22;10600;53.096;8.802;2024-01-11T04:09:47;-5.20;99.90
20881;DHT22;10600;53.096;8.802;2024-01-11T04:10:48;-5.20;99.90
20881;DHT22;10600;53.096;8.802;2024-01-11T04:11:48;-5.20;99.90
20881;DHT22;10600;53.096;8.802;2024-01-11T04:12:49;-5.20;99.90
20881;DHT22;10600;53.096;8.802;2024-01-11T04:13:49;-5.20;99.90
20881;DHT22;10600;53.096;8.802;2024-01-11T04:14:50;-5.20;99.90
20881;DHT22;10600;53.096;8.802;2024-01-11T04:15:51;-5.20;99.90
20881;DHT22;10600;53.096;8.802;2024-01-11T04:16:52;-5.20;99.90
20881;DHT22;10600;53.096;8.802;2024-01-11T04:17:53;-5.20;99.90
20881;DHT22;10600;53.096;8.802;2024-01-11T04:18:53;-5.20;99.90
20881;DHT22;10600;53.096;8.802;2024-01-11T04:19:54;-5.20;99.90
20881;DHT22;10600;53.096;8.802;2024-01-11T04:20:54;-5.20;99.90
20881;DHT22;10600;53.096;8.802;2024-01-11T04:21:55;-5.10;99.90
20881;DHT22;10600;53.096;8.802;2024-01-11T04:22:55;-5.10;99.90
20881;DHT22;10600;53.096;8.802;2024-01-11T04:23:57;-5.10;99.90
20881;DHT22;10600;53.096;8.802;2024-01-11T04:24:58;-5.20;99.90
20881;DHT22;10600;53.096;8.802;2024-01-11T04:25:58;-5.20;99.90
20881;DHT22;10600;53.096;8.802;2024-01-11T04:26:59;-5.20;99.90
20881;DHT22;10600;53.096;8.802;2024-01-11T04:27:59;-5.20;99.90
20881;DHT22;10600;53.096;8.802;2024-01-11T04:29:00;-5.20;99.90
20881;DHT22;10600;53.096;8.802;2024-01-11T04:30:00;-5.30;99.90
20881;DHT22;10600;53.096;8.802;2024-01-11T04:31:01;-5.30;99.90
20881;DHT22;10600;53.096;8.802;2024-01-11T04:32:01;-5.30;99.90
20881;DHT22;10600;53.096;8.802;2024-01-11T04:33:02;-5.40;99.90
20881;DHT22;10600;53.096;8.802;2024-01-11T04:34:03;-5.40;99.90
20881;DHT22;10600;53.096;8.802;2024-01-11T04:35:04;-5.40;99.90
20881;DHT22;10600;53.096;8.802;2024-01-11T04:36:05;-5.40;99.90
20881;DHT22;10600;53.096;8.802;2024-01-11T04:37:06;-5.40;99.90
20881;DHT22;10600;53.096;8.802;2024-01-11T04:38:07;-5.40;99.90
20881;DHT22;10600;53.096;8.802;2024-01-11T04:39:08;-5.40;99.90
20881;DHT22;10600;53.096;8.802;2024-01-11T04:40:09;-5.40;99.90
20881;DHT22;10600;53.096;8.802;2024-01-11T04:41:14;-5.40;99.90
20881;DHT22;10600;53.096;8.802;2024-01-11T04:42:15;-5.30;99.90
20881;DHT22;10600;53.096;8.802;2024-01-11T04:43:15;-5.30;99.90
20881;DHT22;10600;53.096;8.802;2024-01-11T04:44:16;-5.20;99.90
20881;DHT22;10600;53.096;8.802;2024-01-11T04:45:16;-5.20;99.90
20881;DHT22;10600;53.096;8.802;2024-01-11T04:46:19;-5.20;99.90
20881;DHT22;10600;53.096;8.802;2024-01-11T04:47:20;-5.20;99.90
20881;DHT22;10600;53.096;8.802;2024-01-11T04:48:21;-5.20;99.90
20881;DHT22;10600;53.096;8.802;2024-01-11T04:49:21;-5.20;99.90
20881;DHT22;10600;53.096;8.802;2024-01-11T04:50:22;-5.10;99.90
20881;DHT22;10600;53.096;8.802;2024-01-11T04:51:22;-5.10;99.90
20881;DHT22;10600;53.096;8.802;2024-01-11T04:52:23;-5.10;99.90
20881;DHT22;10600;53.096;8.802;2024-01-11T04:53:23;-5.10;99.90
20881;DHT22;10600;53.096;8.802;2024-01-11T04:54:24;-5.10;99.90
20881;DHT22;10600;53.096;8.802;2024-01-11T04:55:25;-5.10;99.90
20881;DHT22;10600;53.096;8.802;2024-01-11T04:56:25;-5.00;99.90
20881;DHT22;10600;53.096;8.802;2024-01-11T04:57:26;-5.00;99.90
20881;DHT22;10600;53.096;8.802;2024-01-11T04:58:26;-5.00;99.90
20881;DHT22;10600;53.096;8.802;2024-01-11T04:59:27;-5.00;99.90
20881;DHT22;10600;53.096;8.802;2024-01-11T05:00:27;-5.00;99.90
20881;DHT22;10600;53.096;8.802;2024-01-11T05:01:28;-4.90;99.90
20881;DHT22;10600;53.096;8.802;2024-01-11T05:02:28;-4.90;99.90
20881;DHT22;10600;53.096;8.802;2024-01-11T05:03:29;-4.90;99.90
20881;DHT22;10600;53.096;8.802;2024-01-11T05:04:30;-4.80;99.90
20881;DHT22;10600;53.096;8.802;2024-01-11T05:05:31;-4.80;99.90
20881;DHT22;10600;53.096;8.802;2024-01-11T05:06:31;-4.70;99.90
20881;DHT22;10600;53.096;8.802;2024-01-11T05:07:32;-4.80;99.90
20881;DHT22;10600;53.096;8.802;2024-01-11T05:08:32;-4.80;99.90
20881;DHT22;10600;53.096;8.802;2024-01-11T05:09:33;-4.70;99.90
20881;DHT22;10600;53.096;8.802;2024-01-11T05:10:35;-4.70;99.90
20881;DHT22;10600;53.096;8.802;2024-01-11T05:11:36;-4.70;99.90
20881;DHT22;10600;53.096;8.802;2024-01-11T05:12:37;-4.70;99.90
20881;DHT22;10600;53.096;8.802;2024-01-11T05:13:38;-4.70;99.90
20881;DHT22;10600;53.096;8.802;2024-01-11T05:14:39;-4.70;99.90
20881;DHT22;10600;53.096;8.802;2024-01-11T05:15:39;-4.70;99.90
20881;DHT22;10600;53.096;8.802;2024-01-11T05:16:40;-4.60;99.90
20881;DHT22;10600;53.096;8.802;2024-01-11T05:17:41;-4.60;99.90
20881;DHT22;10600;53.096;8.802;2024-01-11T05:18:43;-4.60;99.90
20881;DHT22;10600;53.096;8.802;2024-01-11T05:19:43;-4.50;99.90
20881;DHT22;10600;53.096;8.802;2024-01-11T05:20:44;-4.50;99.90
20881;DHT22;10600;53.096;8.802;2024-01-11T05:21:44;-4.50;99.90
20881;DHT22;10600;53.096;8.802;2024-01-11T05:22:45;-4.50;99.90
20881;DHT22;10600;53.096;8.802;2024-01-11T05:23:46;-4.40;99.90
20881;DHT22;10600;53.096;8.802;2024-01-11T05:24:47;-4.40;99.90
20881;DHT22;10600;53.096;8.802;2024-01-11T05:25:47;-4.40;99.90
20881;DHT22;10600;53.096;8.802;2024-01-11T05:26:48;-4.40;99.90
20881;DHT22;10600;53.096;8.802;2024-01-11T05:27:48;-4.30;99.90
20881;DHT22;10600;53.096;8.802;2024-01-11T05:28:49;-4.30;99.90
20881;DHT22;10600;53.096;8.802;2024-01-11T05:29:50;-4.30;99.90
20881;DHT22;10600;53.096;8.802;2024-01-11T05:30:50;-4.20;99.90
20881;DHT22;10600;53.096;8.802;2024-01-11T05:31:51;-4.20;99.90
20881;DHT22;10600;53.096;8.802;2024-01-11T05:32:51;-4.30;99.90
20881;DHT22;10600;53.096;8.802;2024-01-11T05:33:52;-4.30;99.90
20881;DHT22;10600;53.096;8.802;2024-01-11T05:34:52;-4.30;99.90
20881;DHT22;10600;53.096;8.802;2024-01-11T05:35:53;-4.30;99.90
20881;DHT22;10600;53.096;8.802;2024-01-11T05:36:54;-4.30;99.90
20881;DHT22;10600;53.096;8.802;2024-01-11T05:37:54;-4.20;99.90
20881;DHT22;10600;53.096;8.802;2024-01-11T05:38:55;-4.20;99.90
20881;DHT22;10600;53.096;8.802;2024-01-11T05:39:56;-4.20;99.90
20881;DHT22;10600;53.096;8.802;2024-01-11T05:40:57;-4.20;99.90
20881;DHT22;10600;53.096;8.802;2024-01-11T05:41:58;-4.10;99.90
20881;DHT22;10600;53.096;8.802;2024-01-11T05:42:58;-4.10;99.90
20881;DHT22;10600;53.096;8.802;2024-01-11T05:43:59;-4.10;99.90
20881;DHT22;10600;53.096;8.802;2024-01-11T05:44:59;-4.00;99.90
20881;DHT22;10600;53.096;8.802;2024-01-11T05:46:00;-4.00;99.90
20881;DHT22;10600;53.096;8.802;2024-01-11T05:47:00;-3.90;99.90
20881;DHT22;10600;53.096;8.802;2024-01-11T05:48:01;-3.90;99.90
20881;DHT22;10600;53.096;8.802;2024-01-11T05:49:01;-3.90;99.90
20881;DHT22;10600;53.096;8.802;2024-01-11T05:50:02;-3.90;99.90
20881;DHT22;10600;53.096;8.802;2024-01-11T05:51:03;-3.90;99.90
20881;DHT22;10600;53.096;8.802;2024-01-11T05:52:04;-3.80;99.90
20881;DHT22;10600;53.096;8.802;2024-01-11T05:53:04;-3.80;99.90
20881;DHT22;10600;53.096;8.802;2024-01-11T05:54:05;-3.80;99.90
20881;DHT22;10600;53.096;8.802;2024-01-11T05:55:06;-3.70;99.90
20881;DHT22;10600;53.096;8.802;2024-01-11T05:56:10;-3.70;99.90
20881;DHT22;10600;53.096;8.802;2024-01-11T05:57:10;-3.70;99.90
20881;DHT22;10600;53.096;8.802;2024-01-11T05:58:11;-3.70;99.90
20881;DHT22;10600;53.096;8.802;2024-01-11T05:59:11;-3.80;99.90
20881;DHT22;10600;53.096;8.802;2024-01-11T06:00:12;-3.80;99.90
20881;DHT22;10600;53.096;8.802;2024-01-11T06:01:12;-3.80;99.90
20881;DHT22;10600;53.096;8.802;2024-01-11T06:02:13;-3.80;99.90
20881;DHT22;10600;53.096;8.802;2024-01-11T06:03:14;-3.80;99.90
20881;DHT22;10600;53.096;8.802;2024-01-11T06:04:14;-3.80;99.90
20881;DHT22;10600;53.096;8.802;2024-01-11T06:05:15;-3.80;99.90
20881;DHT22;10600;53.096;8.802;2024-01-11T06:06:15;-3.80;99.90
20881;DHT22;10600;53.096;8.802;2024-01-11T06:07:16;-3.70;99.90
20881;DHT22;10600;53.096;8.802;2024-01-11T06:08:16;-3.70;99.90
20881;DHT22;10600;53.096;8.802;2024-01-11T06:09:17;-3.70;99.90
20881;DHT22;10600;53.096;8.802;2024-01-11T06:10:18;-3.70;99.90
20881;DHT22;10600;53.096;8.802;2024-01-11T06:11:18;-3.70;99.90
20881;DHT22;10600;53.096;8.802;2024-01-11T06:12:19;-3.70;99.90
20881;DHT22;10600;53.096;8.802;2024-01-11T06:13:19;-3.70;99.90
20881;DHT22;10600;53.096;8.802;2024-01-11T06:14:20;-3.70;99.90
20881;DHT22;10600;53.096;8.802;2024-01-11T06:15:20;-3.70;99.90
20881;DHT22;10600;53.096;8.802;2024-01-11T06:16:21;-3.70;99.90
20881;DHT22;10600;53.096;8.802;2024-01-11T06:17:21;-3.70;99.90
20881;DHT22;10600;53.096;8.802;2024-01-11T06:18:22;-3.70;99.90
20881;DHT22;10600;53.096;8.802;2024-01-11T06:19:23;-3.70;99.90
20881;DHT22;10600;53.096;8.802;2024-01-11T06:20:23;-3.70;99.90
20881;DHT22;10600;53.096;8.802;2024-01-11T06:21:24;-3.70;99.90
20881;DHT22;10600;53.096;8.802;2024-01-11T06:22:24;-3.70;99.90
20881;DHT22;10600;53.096;8.802;2024-01-11T06:23:25;-3.70;99.90